Santa Barbara, California
Current Conditions -  °F | °C
As of 1:53 PM on Monday 22 Dec 2014 (Local Time) from KSBA Reporting Station
Clear Clear  
Wind Chill: 72°   Ceiling: Unl
Heat Index: 72°   Visibility: 10mi
Dew Point: 58°   Wind: 8mph
Humidity: 61%   Direction: 140°SE
Pressure: 29.94"   Gusts: NA
Location:  34.42°N, 119.69°W
Report Text: KSBA 222153Z 14007KT 10SM CLR 22/14 A2994 RMK AO2 SLP139 T02220144
Loading
Personal Weather Stations






























Interactive Weather Map New forecast layout! Learn more

10-Day Weather Forecast

Advertisements
Track Severe Weather on mobile